VREMENSKI PODATKI

DANES
Time Temp. Dewp. Hum. Smer vet Hitrost ve Wind gust Bar. 1h Prec. 24h Prec.
00:03 18.4 16.4 88 270 0.3 0.8 1012.8 0.0000 0.0000
00:13 18.2 16.2 88 270 0.3 1.4 1012.9 0.0000 0.0000
00:23 18.1 16.1 88 270 0.3 1.1 1012.8 0.0000 0.0000
00:33 17.9 15.9 88 270 0.3 0.8 1012.8 0.0000 0.0000
00:43 17.8 16 89 270 0.3 0.8 1012.8 0.0000 0.0000
00:53 17.8 16.1 90 189 0.3 1.1 1012.8 0.0000 0.0000
01:03 17.8 16.1 90 186 0.3 1.1 1012.8 0.0000 0.0000
01:13 17.7 15.9 89 326 0.3 0.8 1012.8 0.0000 0.0000
01:23 17.4 15.6 89 7 0.6 1.4 1013.1 0.0000 0.0000
01:33 17.4 15.7 90 237 0.3 0.8 1013.1 0.0000 0.0000
01:44 17.4 15.7 90 270 0.6 1.4 1012.9 0.0000 0.0000
01:54 17.5 16.2 92 135 0.6 2.2 1012.9 0.0000 0.0000
02:03 17.7 16.4 92 149 0.6 2.2 1012.9 0.0000 0.0000
02:14 18.2 16.9 92 158 0.6 2.8 1012.9 0.0000 0.0000
02:24 18.5 17 91 246 0.8 2.8 1013.1 0.0000 0.0000
02:34 18.6 16.8 89 140 0.6 1.4 1012.9 0.0000 0.0000
02:43 18.7 16.9 89 143 0.6 1.9 1013 0.0000 0.0000
02:54 18.8 16.8 88 135 0.6 1.4 1013.1 0.0000 0.0000
03:04 18.8 16.8 88 341 0.6 1.4 1013.2 0.0000 0.0000
03:14 18.8 16.6 87 315 0.6 1.1 1013.3 0.0000 0.0000
03:24 18.7 16.5 87 270 0.3 1.1 1013 0.0000 0.0000
03:34 18.8 16.8 88 253 0.6 1.7 1013.1 0.0000 0.0000
03:44 18.9 16.9 88 240 0.6 2.5 1013 0.0000 0.0000
03:54 19.1 16.9 87 291 0.6 1.7 1013 0.0000 0.0000
04:05 19.2 17 87 173 0.6 1.7 1013.2 0.0000 0.0000
04:14 19.3 17.1 87 270 0.6 1.7 1013.2 0.0000 0.0000
04:24 19.4 17 86 254 0.6 1.9 1013.2 0.0000 0.0000
04:35 19.4 17 86 270 0.6 1.4 1013.3 0.0000 0.0000
04:45 19.2 16.8 86 253 0.6 1.4 1013.3 0.0000 0.0000
04:55 19.1 16.5 85 231 0.6 1.4 1013.2 0.0000 0.0000
05:04 18.9 16.3 85 251 0.6 1.4 1013.1 0.0000 0.0000
05:15 18.7 16.3 86 270 0.3 0.8 1013.1 0.0000 0.0000
05:25 18.5 16.3 87 235 0.3 0.8 1013.2 0.0000 0.0000
05:35 18.4 16.2 87 236 0.3 0.8 1013.1 0.0000 0.0000
05:45 18.2 16 87 329 0.3 0.8 1013.2 0.0000 0.0000
05:55 17.9 15.7 87 319 0.3 1.1 1013.1 0.0000 0.0000
06:05 17.7 15.7 88 270 0.3 0.8 1013.2 0.0000 0.0000
06:15 17.5 15.7 89 270 0.3 0.8 1013.1 0.0000 0.0000
06:26 17.3 15.5 89 270 0.3 0.8 1012.9 0.0000 0.0000
06:35 17.1 15.3 89 315 0.3 0.8 1013 0.0000 0.0000
06:45 16.9 15.3 90 329 0.3 1.1 1013 0.0000 0.0000
06:55 16.9 15.4 91 311 0.3 0.8 1013.2 0.0000 0.0000
07:07 17 15.7 92 135 0.6 4.7 1013.3 0.0000 0.0000
07:17 17.3 16.2 93 198 0.3 1.1 1013.4 0.0000 0.0000
07:20 17.4 16.3 93 270 0.3 1.1 1013.5 0.0000 0.0000
07:31 17.7 16.4 92 270 0.3 1.1 1013.4 0.0000 0.0000
07:41 17.8 16.5 92 128 0.3 1.1 1013.5 0.0000 0.0000
07:51 18 16.7 92 180 0.3 0.6 1013.7 0.0000 0.0000
08:00 18.1 16.8 92 180 0.3 1.1 1013.6 0.0000 0.0000
08:11 18.3 16.8 91 153 0.3 1.1 1013.6 0.0000 0.0000
08:21 18.6 17.3 92 90 0.6 1.7 1013.7 0.0000 0.0000
08:31 19.1 17.6 91 90 0.8 2.2 1013.7 0.0000 0.0000
08:41 19.6 17.9 90 135 0.6 1.7 1013.7 0.0000 0.0000
08:51 20 18 88 259 0.8 2.5 1013.6 0.0000 0.0000
09:01 20.5 18.3 87 270 0.8 2.2 1013.6 0.0000 0.0000
09:11 20.9 18.3 85 260 0.8 4.2 1013.6 0.0000 0.0000
09:22 21.3 18.7 85 228 1.1 3.3 1013.7 0.0000 0.0000
09:32 21.6 18.6 83 270 0.8 1.7 1013.8 0.0000 0.0000
09:41 21.9 18.9 83 270 0.8 1.7 1013.8 0.0000 0.0000
09:52 22.2 18.8 81 270 0.8 2.5 1013.9 0.0000 0.0000
10:02 22.5 18.9 80 270 0.6 1.9 1013.9 0.0000 0.0000
10:12 22.8 19 79 270 0.8 2.2 1013.9 0.0000 0.0000
10:21 23.1 19.3 79 255 0.8 2.5 1013.9 0.0000 0.0000
10:32 23.3 19.2 78 270 0.6 1.7 1013.9 0.0000 0.0000
10:42 23.6 19.3 77 240 1.1 3.1 1013.9 0.0000 0.0000
10:52 23.8 19.3 76 257 1.4 3.1 1013.9 0.0000 0.0000
11:02 24.1 19.4 75 259 1.1 3.1 1013.6 0.0000 0.0000
11:12 24.2 19.1 73 270 1.1 3.1 1013.7 0.0000 0.0000
11:22 24.5 19.3 73 253 1.1 3.3 1013.8 0.0000 0.0000
11:32 24.7 19.5 73 262 1.1 2.5 1013.8 0.0000 0.0000
11:43 25 19.6 72 240 0.8 2.8 1013.8 0.0000 0.0000
11:52 25.2 19.6 71 241 1.1 2.5 1013.9 0.0000 0.0000
12:02 25.6 20 71 248 0.8 1.9 1013.8 0.0000 0.0000
12:13 26.1 20 69 270 1.1 4.7 1013.6 0.0000 0.0000
12:23 26.7 20.3 68 257 1.7 4.2 1013.7 0.0000 0.0000
12:33 27.2 20.8 68 270 1.1 3.3 1013.7 0.0000 0.0000
12:42 27.6 20.2 64 254 1.7 3.6 1013.6 0.0000 0.0000
12:53 27.9 20.2 63 247 1.4 3.1 1013.6 0.0000 0.0000
13:03 27.9 19.9 62 289 1.1 3.6 1013.6 0.0000 0.0000
13:13 27.9 19.7 61 210 0.6 2.2 1013.6 0.0000 0.0000
13:23 28.1 19.6 60 252 1.1 3.1 1013.4 0.0000 0.0000
13:33 28.2 20 61 9 0.8 1.7 1013.1 0.0000 0.0000
13:43 28.1 19.3 59 250 1.1 2.8 1013.1 0.0000 0.0000
13:53 28 19.2 59 270 0.8 1.9 1013 0.0000 0.0000
14:04 28.3 20.1 61 232 1.4 5 1012.9 0.0000 0.0000
14:13 28.6 20.1 60 248 0.8 2.8 1012.8 0.0000 0.0000
14:23 28.9 20.4 60 255 1.4 3.3 1012.6 0.0000 0.0000
14:34 29.1 20.5 60 229 1.4 4.4 1012.6 0.0000 0.0000
14:44 29.3 20.5 59 260 1.1 3.3 1012.6 0.0000 0.0000
14:54 29.4 20.3 58 262 1.1 3.3 1012.7 0.0000 0.0000
15:03 29.5 20.4 58 247 0.8 2.2 1012.6 0.0000 0.0000
15:14 29.5 20.6 59 235 0.8 2.5 1012.6 0.0000 0.0000
15:17 29.4 20.3 58 250 1.7 5.8 1012.6 0.0000 0.0000
15:27 28.3 20.3 62 4 3.3 5.3 1012.8 0.0000 0.0000
15:38 27.5 20.1 64 5 1.9 3.6 1012.7 0.0000 0.0000
15:48 27.3 20.1 65 349 1.7 2.5 1012.5 0.0000 0.0000
15:58 26.9 20 66 352 1.9 3.6 1012.6 0.0000 0.0000
16:08 26.5 20.1 68 355 1.7 3.1 1012.5 0.0000 0.0000
16:18 26.2 19.8 68 5 1.9 3.6 1012.5 0.0000 0.0000
16:28 26.1 20 69 10 1.4 2.5 1012.6 0.0000 0.0000
16:38 26 19.9 69 358 1.7 2.5 1012.7 0.0000 0.0000
16:48 25.7 19.8 70 11 1.1 2.8 1012.7 0.0000 0.0000
16:58 25.5 19.6 70 357 1.4 2.8 1012.8 0.0000 0.0000
17:08 25.5 19.9 71 350 0.6 1.4 1012.7 0.0000 0.0000
17:18 25.4 19.8 71 20 0.8 3.1 1012.6 0.0000 0.0000
17:28 25.4 19.8 71 349 1.4 3.1 1012.6 0.0000 0.0000
17:38 25.1 19.5 71 15 1.7 2.8 1012.8 0.0000 0.0000
17:48 25 19.4 71 1 1.4 2.2 1012.7 0.0000 0.0000
18:01 24.8 19.2 71 354 1.4 2.2 1012.6 0.0000 0.0000
18:11 24.7 19.3 72 348 0.8 1.9 1012.7 0.0000 0.0000
18:22 24.5 19.3 73 1 0.8 1.7 1012.8 0.0000 0.0000

DNEVNA STATISTIKA

2021-09-18
TEMPERATURA
POVPREČNO
22.1
VISOKO
29.5
15:03
NIZKO
16.9
06:45
PRITISK
POVPREČNO
1013.2
VISOKO
1013.9
09:52
NIZKO
1012.5
15:48
ROSIŠČE
POVPREČNO
18.1
VISOKO
20.8
12:33
NIZKO
15.3
06:35
VLAŽNOST
POVPREČNO
79
VISOKO
93
07:17
NIZKO
58
14:54
HITROST VETRA
POVPREČNO
0.8
VISOKO
3.3
15:27
WIND GUST
POVPREČNO
2.2
VISOKO
5.8
15:17
SMER VETRA
PREVLADUJOČA
Z
44.1%
S
18.9
SV
0.0
V
1.8
JV
8.1
J
6.3
JZ
14.4
Z
44.1
SZ
6.3
PADAVINE
PADAVINE URNO
0.0
PADAVINE DNEVNO
0.0
TEMPERATURA (°C)
NIZKO
16.9
VISOKO
29.5
POVPREČNO
22.1
PRITISK (hpa)
NIZKO
1012.5
VISOKO
1013.9
POVPREČNO
1013.2
DEVICE